x

Nantucket Sound (44020) Wave Buoy

1:50am - Sun 24th Jul 2016 All times are EDT. -4 hours from GMT.

  • Sig Wave height 1.6ft
  • Swell Direction
  • Peak Period 3s
  • Average Period 3s
  • Wind
    16mph, 20mph gusts
  • Sea Temp 74°f
  • Air Temp 74°f
  • Sea Pressure 1010.9mb
  • Nantucket Sound
  • Nantucket Sound

More Historic Weather Station data

Upgrade to MSW Pro to gain access to the past 30 days of data for over 8000 Wavebouys and Weather Stations around the globe.

Join Pro

Comparision Forecast

View Surf forecast
   
Sun 07/24 1:50am 1.6ft 3s 3s 16 20 mph 1010.9mb 74f 74f
12:50am 1.3ft 3s 3s 13 16 mph 1010.2mb 74f 74f
Sat 07/23 11:50pm 1.6ft 3s 3s 13 16 mph 1010.2mb 74f 74f
10:50pm 2ft 4s 3s 11 13 mph 1009.8mb 74f 74f
9:50pm 2ft 3s 3s 20 27 mph 1010.7mb 74f 74f
8:50pm 1.3ft 3s 3s 16 18 mph 1007.4mb 74f 76f
7:50pm 1.3ft 3s 3s 16 18 mph 1006.7mb 74f 77f
6:50pm 1.6ft 3s 3s 20 22 mph 1006.3mb 74f 78f
5:50pm 1.3ft 3s 3s 20 25 mph 1006.2mb 75f 77f
4:50pm 1.3ft 3s 3s 18 20 mph 1006.4mb 75f 75f
3:50pm 1.3ft 3s 3s 18 20 mph 1006.8mb 74f 75f
2:50pm 1.6ft 3s 3s 16 18 mph 1007.1mb 74f 75f
1:50pm 1.3ft 3s 3s 16 18 mph 1007.5mb 74f 74f
12:50pm 1.3ft 3s 3s 13 18 mph 1007.7mb 74f 74f
11:50am 1.3ft 2s  -  16 20 mph 1007.9mb 74f 73f
10:50am 1.3ft 2s 3s 16 18 mph 1007.6mb 74f 73f
9:50am 1.6ft 3s 3s 18 20 mph 1007.6mb 74f 74f
8:50am 1.3ft 2s 3s 18 20 mph 1007.7mb 74f 74f
7:50am 1.3ft 3s 3s 13 16 mph 1008mb 73f 73f
6:50am 1.6ft 3s 3s 18 22 mph 1007.7mb 73f 73f
5:50am 1.6ft 3s 3s 16 18 mph 1007.6mb 74f 73f
4:50am 1.3ft 4s 3s 20 25 mph 1007.2mb 74f 73f
3:50am 1.6ft 4s 4s 18 20 mph 1007.8mb 74f 72f
2:50am 2.5ft 4s 4s 9 13 mph 1008.7mb 73f 73f
1:50am 2.5ft 3s 3s 20 25 mph 1007.9mb 74f 75f
12:50am 2ft 3s 3s 22 27 mph 1008.2mb 74f 74f
Fri 07/22 11:50pm 2ft 3s 3s 20 25 mph 1009mb 74f 74f
10:50pm 2.5ft 4s 3s 22 27 mph 1008.6mb 74f 74f
9:50pm 2.5ft 3s 3s 25 31 mph 1008.7mb 74f 74f
8:50pm 2.5ft 3s 3s 22 29 mph 1008.7mb 74f 74f
7:50pm 2.5ft 3s 3s 22 27 mph 1008.7mb 74f 74f
6:50pm 3ft 4s 4s 25 29 mph 1008.5mb 74f 74f
5:50pm 2.5ft 4s 4s 25 29 mph 1009.2mb 74f 74f
4:50pm 3ft 4s 4s 25 31 mph 1009.1mb 74f 75f
3:50pm 2.5ft 4s 4s 27 31 mph 1009.5mb 74f 74f
1:50pm 2.5ft 4s 3s 27 31 mph 1010.6mb 73f 74f
12:50pm 2.5ft 3s 3s 25 29 mph 1011.4mb 73f 73f
11:50am 2.5ft 3s 3s 27 31 mph 1011.9mb 74f 74f
10:50am 2ft 3s 3s 22 27 mph 1012.7mb 74f 73f
9:50am 2.5ft 3s 3s 25 29 mph 1012.8mb 73f 74f
8:50am 2ft 3s 3s 22 27 mph 1013.7mb 73f 73f
7:50am 2.5ft 3s 3s 20 25 mph 1014.4mb 71f 73f
6:50am 2ft 3s 3s 22 27 mph 1014.5mb 70f 73f
5:50am 2ft 4s 3s 22 27 mph 1014.5mb 71f 72f
4:50am 2ft 3s 3s 20 25 mph 1014.8mb 72f 72f
3:50am 1.6ft 3s 3s 22 27 mph 1014.7mb 73f 73f
2:50am 1.3ft 3s 3s 20 25 mph 1015.3mb 73f 72f
1:50am 1.6ft 3s 3s 18 20 mph 1015.6mb 73f 72f
12:50am 1.6ft 3s 3s 18 22 mph 1016.1mb 73f 72f
Thu 07/21 11:50pm 1.3ft 3s 3s 18 20 mph 1016.7mb 73f 72f
10:50pm 1.6ft 3s 3s 18 20 mph 1017.1mb 74f 72f
9:50pm 1.6ft 3s 3s 18 22 mph 1017.2mb 74f 73f
8:50pm 2ft 3s 3s 20 25 mph 1016.8mb 73f 73f
7:50pm 2ft 3s 3s 20 22 mph 1016.8mb 72f 73f
6:50pm 2ft 3s 3s 20 22 mph 1017.1mb 72f 73f
5:50pm 1.6ft 3s 3s 20 22 mph 1017.5mb 72f 73f
4:50pm 1.6ft 3s 3s 20 25 mph 1018.1mb 73f 73f
3:50pm 1.6ft 3s 3s 20 22 mph 1018.1mb 74f 73f
2:50pm 1.3ft 3s 3s 18 20 mph 1018.6mb 74f 72f
1:50pm 1ft 3s 3s 13 16 mph 1018.7mb 74f 73f
12:50pm 0.7ft  -  4s 13 16 mph 1019.7mb 74f 72f
11:50am 0.3ft  -  3s 9
mph
1020.4mb 74f 73f
10:50am 0.7ft  -  3s 4 7 mph 1020.9mb 74f 73f
9:50am 0.3ft  -  3s 7 9 mph 1020.7mb 73f 73f
8:50am 0.7ft  -  3s 9
mph
1020.9mb 73f 73f
7:50am 0.7ft  -  3s 4 7 mph 1020.8mb 72f 73f
6:50am 0.3ft  -  4s 7
mph
1020.8mb 71f 73f
5:50am 0.3ft  -  3s 4
mph
1020.2mb 71f 72f
4:50am 0.3ft  -  3s 4
mph
1019.7mb 71f 72f
3:50am 0.7ft  -  3s 7
mph
1019.7mb 72f 73f
2:50am 0.7ft  -  3s 7 9 mph 1020mb 73f 72f
1:50am 1ft 3s 3s 11
mph
1020.2mb 73f 72f
12:50am 1ft 3s 3s 11 13 mph 1020.4mb 73f 72f
Wed 07/20 11:50pm 1ft 2s 3s 11 13 mph 1020.6mb 73f 72f
10:50pm 1.3ft 3s 3s 13 18 mph 1020.7mb 73f 72f
9:50pm 1.3ft 3s 3s 16 18 mph 1020.4mb 73f 73f
8:50pm 1.3ft 3s 3s 9 13 mph 1020.2mb 73f 73f
7:50pm 1.6ft 3s 3s 13 16 mph 1019.8mb 73f 73f
6:50pm 2ft 3s 3s 18 20 mph 1019.2mb 72f 72f
5:50pm 2ft 4s 3s 20 25 mph 1018.9mb 72f 72f
4:50pm 1.6ft 3s 3s 20 25 mph 1019.1mb 72f 72f
3:50pm 1.3ft 3s 3s 20 22 mph 1019.5mb 73f 71f
2:50pm 1ft 3s 3s 13 16 mph 1020.2mb 74f 71f
1:50pm 1ft 3s 3s 13 16 mph 1020.8mb 74f 71f
12:50pm 1ft 3s 3s 11 13 mph 1021.2mb 73f 70f
11:50am 1ft 3s 3s 9 11 mph 1021.9mb 73f 72f
10:50am 1ft 3s 3s 9 11 mph 1022.5mb 73f 72f
9:50am 1ft 3s 3s 9 11 mph 1022.7mb 73f 70f
8:50am 1.3ft 3s 3s 9 13 mph 1022.6mb 73f 70f
7:50am 1.6ft 3s 3s 11 13 mph 1021.9mb 72f 69f